createdAt,value
2023-03-13T00:02:10.562Z,52.63
2023-03-13T00:07:10.225Z,52.99
2023-03-13T00:12:11.008Z,52.90
2023-03-13T00:17:09.892Z,53.13
2023-03-13T00:22:08.727Z,52.88
2023-03-13T00:27:07.544Z,53.10
2023-03-13T00:32:08.242Z,53.32
2023-03-13T00:37:07.206Z,53.63
2023-03-13T00:42:06.770Z,53.95
2023-03-13T00:47:07.624Z,53.70
2023-03-13T00:52:08.249Z,53.71
2023-03-13T00:57:07.225Z,54.22
2023-03-13T01:02:07.587Z,54.32
2023-03-13T01:07:06.600Z,55.20
2023-03-13T01:12:05.808Z,55.11
2023-03-13T01:17:04.751Z,55.92
2023-03-13T01:22:05.312Z,55.31
2023-03-13T01:27:04.269Z,56.00
2023-03-13T01:32:03.253Z,56.40
2023-03-13T01:37:02.251Z,55.61
2023-03-13T01:42:04.405Z,55.92
2023-03-13T01:47:03.341Z,56.19
2023-03-13T01:52:27.663Z,56.80
2023-03-13T01:57:42.270Z,56.06
2023-03-13T02:02:44.465Z,55.65
2023-03-13T02:07:46.777Z,56.28
2023-03-13T02:12:47.355Z,56.14
2023-03-13T02:17:47.381Z,56.92
2023-03-13T02:22:51.276Z,56.79
2023-03-13T02:27:53.977Z,56.39
2023-03-13T02:32:53.549Z,56.41
2023-03-13T02:37:55.825Z,58.84
2023-03-13T02:42:59.913Z,58.85
2023-03-13T02:47:59.144Z,58.27
2023-03-13T02:53:02.275Z,58.07
2023-03-13T02:58:03.626Z,58.17
2023-03-13T03:03:06.930Z,57.79
2023-03-13T03:08:05.834Z,57.34
2023-03-13T03:13:06.268Z,57.32
2023-03-13T03:18:05.491Z,57.85
2023-03-13T03:23:04.391Z,57.91
2023-03-13T03:28:06.381Z,57.40
2023-03-13T03:33:05.654Z,56.70
2023-03-13T03:38:04.559Z,56.45
2023-03-13T03:43:03.520Z,56.47
2023-03-13T03:48:04.160Z,56.46
2023-03-13T03:53:03.283Z,57.71
2023-03-13T03:58:02.304Z,56.89
2023-03-13T04:03:22.729Z,56.99
2023-03-13T04:08:21.677Z,56.66
2023-03-13T04:13:20.481Z,57.35
2023-03-13T04:18:20.146Z,57.85
2023-03-13T04:23:20.431Z,57.09
2023-03-13T04:28:19.420Z,56.87
2023-03-13T04:33:18.295Z,57.59
2023-03-13T04:38:23.675Z,57.21
2023-03-13T04:43:22.258Z,57.15
2023-03-13T04:48:39.110Z,57.18
2023-03-13T04:54:02.027Z,56.74
2023-03-13T04:59:33.267Z,56.91
2023-03-13T05:04:51.749Z,56.78
2023-03-13T05:10:24.310Z,56.39
2023-03-13T05:15:41.582Z,56.71
2023-03-13T05:21:03.686Z,56.53
2023-03-13T05:26:39.872Z,56.45
2023-03-13T05:31:57.858Z,56.84
2023-03-13T05:37:15.424Z,56.94
2023-03-13T05:42:18.363Z,56.85
2023-03-13T05:47:31.460Z,56.94
2023-03-13T05:52:36.181Z,57.03
2023-03-13T05:57:50.484Z,57.83
2023-03-13T06:02:54.676Z,57.80
2023-03-13T06:08:03.100Z,58.44
2023-03-13T06:13:17.389Z,58.97
2023-03-13T06:18:18.726Z,59.34
2023-03-13T06:23:17.828Z,60.12
2023-03-13T06:28:18.590Z,58.99
2023-03-13T06:33:17.421Z,59.70
2023-03-13T06:38:16.305Z,59.89
2023-03-13T06:43:15.098Z,59.40
2023-03-13T06:48:15.239Z,58.85
2023-03-13T06:53:17.896Z,57.01
2023-03-13T06:58:31.111Z,57.29
2023-03-13T07:03:32.725Z,56.75
2023-03-13T07:08:31.673Z,55.98
2023-03-13T07:13:30.670Z,56.37
2023-03-13T07:18:29.425Z,55.99
2023-03-13T07:23:30.554Z,57.19
2023-03-13T07:28:30.909Z,57.17
2023-03-13T07:33:29.685Z,56.73
2023-03-13T07:38:29.871Z,56.23
2023-03-13T07:43:29.547Z,55.91
2023-03-13T07:48:31.334Z,55.38
2023-03-13T07:53:32.095Z,55.65
2023-03-13T07:58:33.179Z,54.48
2023-03-13T08:03:32.043Z,54.63
2023-03-13T08:08:32.587Z,54.28
2023-03-13T08:13:32.305Z,53.69
2023-03-13T08:18:34.830Z,53.65
2023-03-13T08:23:35.713Z,53.92
2023-03-13T08:28:35.058Z,53.46
2023-03-13T08:33:33.823Z,53.21
2023-03-13T08:38:34.514Z,52.63
2023-03-13T08:43:33.275Z,52.71
2023-03-13T08:48:32.036Z,52.59
2023-03-13T08:53:31.551Z,51.47
2023-03-13T08:58:32.060Z,50.76
2023-03-13T09:03:31.037Z,49.75
2023-03-13T09:08:31.542Z,48.76
2023-03-13T09:13:33.656Z,48.42
2023-03-13T09:18:33.327Z,47.16
2023-03-13T09:23:32.282Z,44.99
2023-03-13T09:28:32.770Z,43.47
2023-03-13T09:33:31.459Z,41.73
2023-03-13T09:38:30.195Z,38.51
2023-03-13T09:43:42.358Z,37.59
2023-03-13T09:48:45.760Z,36.26
2023-03-13T09:53:49.734Z,35.70
2023-03-13T09:58:55.834Z,34.96
2023-03-13T10:04:04.003Z,33.72
2023-03-13T10:09:02.902Z,32.40
2023-03-13T10:14:11.802Z,31.41
2023-03-13T10:19:16.268Z,31.34
2023-03-13T10:24:19.643Z,31.04
2023-03-13T10:29:27.225Z,28.91
2023-03-13T10:34:26.564Z,29.22
2023-03-13T10:39:27.161Z,27.60
2023-03-13T10:44:33.260Z,28.36
2023-03-13T10:49:33.921Z,27.95
2023-03-13T10:54:35.334Z,27.63
2023-03-13T10:59:44.662Z,28.22
2023-03-13T11:04:43.375Z,25.45
2023-03-13T11:09:42.200Z,25.76
2023-03-13T11:14:42.915Z,25.48
2023-03-13T11:19:56.270Z,23.06
2023-03-13T11:25:04.398Z,23.82
2023-03-13T11:30:19.739Z,23.93
2023-03-13T11:35:38.454Z,24.56
2023-03-13T11:40:45.159Z,22.21
2023-03-13T11:46:00.528Z,21.03
2023-03-13T11:51:13.043Z,19.05
2023-03-13T11:56:17.168Z,21.50
2023-03-13T12:01:19.695Z,20.50
2023-03-13T12:06:28.702Z,20.56
2023-03-13T12:11:31.042Z,20.77
2023-03-13T12:16:42.554Z,19.71
2023-03-13T12:21:48.515Z,19.20
2023-03-13T12:26:51.080Z,18.37
2023-03-13T12:31:58.869Z,19.93
2023-03-13T12:37:02.813Z,17.95
2023-03-13T12:42:24.847Z,18.38
2023-03-13T12:47:33.185Z,18.52
2023-03-13T12:53:04.331Z,19.51
2023-03-13T12:58:22.521Z,18.61
2023-03-13T13:03:36.315Z,17.23
2023-03-13T13:08:38.888Z,17.71
2023-03-13T13:13:41.399Z,17.10
2023-03-13T13:18:41.547Z,17.92
2023-03-13T13:23:43.827Z,17.68
2023-03-13T13:28:44.039Z,16.60
2023-03-13T13:33:46.769Z,17.81
2023-03-13T13:38:45.928Z,16.96
2023-03-13T13:43:46.382Z,16.56
2023-03-13T13:48:46.776Z,16.14
2023-03-13T13:53:47.395Z,15.60
2023-03-13T13:58:48.455Z,17.24
2023-03-13T14:03:51.987Z,17.20
2023-03-13T14:08:56.398Z,17.00
2023-03-13T14:14:14.435Z,17.18
2023-03-13T14:19:29.358Z,16.54
2023-03-13T14:24:29.041Z,15.99
2023-03-13T14:29:29.951Z,17.78
2023-03-13T14:34:33.569Z,17.46
2023-03-13T14:39:45.514Z,16.40
2023-03-13T14:44:50.438Z,17.58
2023-03-13T14:49:58.914Z,18.96
2023-03-13T14:55:02.309Z,17.75
2023-03-13T15:00:32.612Z,17.51
2023-03-13T15:05:35.202Z,17.64
2023-03-13T15:10:36.893Z,17.65
2023-03-13T15:15:35.775Z,18.41
2023-03-13T15:20:36.234Z,17.72
2023-03-13T15:25:35.038Z,17.92
2023-03-13T15:30:34.194Z,18.57
2023-03-13T15:35:35.935Z,20.01
2023-03-13T15:40:34.772Z,19.52
2023-03-13T15:45:33.701Z,19.29
2023-03-13T15:50:32.426Z,19.30
2023-03-13T15:55:32.676Z,19.52
2023-03-13T16:00:46.315Z,20.18
2023-03-13T16:05:54.018Z,20.75
2023-03-13T16:10:58.122Z,21.41
2023-03-13T16:15:58.486Z,21.53
2023-03-13T16:21:06.357Z,22.34
2023-03-13T16:26:10.437Z,23.22
2023-03-13T16:31:21.723Z,23.79
2023-03-13T16:36:25.138Z,23.67
2023-03-13T16:41:27.798Z,23.86
2023-03-13T16:46:29.073Z,24.25
2023-03-13T16:51:30.756Z,25.19
2023-03-13T16:56:34.810Z,25.97
2023-03-13T17:01:35.652Z,26.30
2023-03-13T17:06:37.313Z,26.44
2023-03-13T17:11:47.710Z,26.55
2023-03-13T17:16:50.487Z,27.47
2023-03-13T17:21:54.026Z,27.69
2023-03-13T17:26:57.267Z,27.86
2023-03-13T17:31:56.406Z,28.40
2023-03-13T17:36:55.246Z,28.88
2023-03-13T17:42:09.398Z,28.90
2023-03-13T17:47:18.957Z,29.45
2023-03-13T17:52:25.856Z,29.93
2023-03-13T17:57:29.623Z,30.30
2023-03-13T18:02:29.367Z,30.25
2023-03-13T18:07:30.055Z,30.66
2023-03-13T18:12:30.194Z,30.95
2023-03-13T18:17:29.072Z,31.23
2023-03-13T18:22:27.892Z,31.28
2023-03-13T18:27:26.777Z,31.60
2023-03-13T18:32:27.006Z,31.51
2023-03-13T18:37:28.374Z,31.64
2023-03-13T18:42:27.285Z,31.96
2023-03-13T18:47:28.702Z,31.83
2023-03-13T18:52:27.595Z,32.20
2023-03-13T18:57:28.624Z,32.36
2023-03-13T19:02:28.811Z,32.76
2023-03-13T19:07:28.951Z,32.60
2023-03-13T19:12:27.892Z,32.40
2023-03-13T19:17:29.617Z,32.52
2023-03-13T19:22:28.419Z,32.13
2023-03-13T19:27:27.256Z,32.23
2023-03-13T19:32:26.116Z,32.29
2023-03-13T19:37:33.494Z,32.25
2023-03-13T19:42:35.473Z,33.40
2023-03-13T19:47:34.320Z,33.79
2023-03-13T19:52:37.896Z,33.67
2023-03-13T19:57:48.194Z,33.65
2023-03-13T20:02:46.943Z,33.87
2023-03-13T20:07:48.613Z,33.65
2023-03-13T20:12:48.330Z,34.06
2023-03-13T20:17:47.355Z,34.12
2023-03-13T20:23:01.899Z,34.94
2023-03-13T20:28:02.222Z,35.96
2023-03-13T20:33:02.928Z,36.18
2023-03-13T20:38:05.371Z,35.97
2023-03-13T20:43:07.254Z,36.45
2023-03-13T20:48:09.645Z,36.89
2023-03-13T20:53:15.214Z,37.54
2023-03-13T20:58:19.963Z,37.76
2023-03-13T21:03:48.104Z,37.97
2023-03-13T21:08:51.244Z,38.84
2023-03-13T21:13:52.454Z,38.46
2023-03-13T21:18:51.551Z,38.87
2023-03-13T21:23:53.283Z,39.08
2023-03-13T21:28:53.368Z,39.53
2023-03-13T21:33:52.552Z,40.63
2023-03-13T21:38:53.114Z,41.52
2023-03-13T21:44:13.691Z,41.41
2023-03-13T21:49:13.650Z,42.30
2023-03-13T21:54:13.888Z,42.09
2023-03-13T21:59:12.707Z,43.29
2023-03-13T22:04:11.430Z,44.28
2023-03-13T22:09:10.349Z,44.12
2023-03-13T22:14:10.701Z,45.07
2023-03-13T22:19:09.597Z,44.36
2023-03-13T22:24:10.156Z,44.95
2023-03-13T22:29:10.426Z,44.66
2023-03-13T22:34:09.108Z,45.31
2023-03-13T22:39:08.127Z,45.65
2023-03-13T22:44:07.106Z,46.11
2023-03-13T22:49:07.276Z,45.45
2023-03-13T22:54:06.155Z,45.15
2023-03-13T22:59:06.259Z,45.28
2023-03-13T23:04:07.040Z,45.49
2023-03-13T23:09:06.587Z,45.25
2023-03-13T23:14:05.376Z,45.84
2023-03-13T23:19:07.405Z,45.52
2023-03-13T23:24:06.870Z,45.21
2023-03-13T23:29:05.824Z,44.41
2023-03-13T23:34:04.539Z,43.81
2023-03-13T23:39:05.736Z,43.14
2023-03-13T23:44:04.435Z,42.79
2023-03-13T23:49:03.294Z,42.31
2023-03-13T23:54:02.109Z,42.71
2023-03-13T23:59:02.263Z,43.13
